createdAt,value
2019-05-22T00:00:17.450Z,18.67
2019-05-22T00:02:47.753Z,19.80
2019-05-22T00:05:17.722Z,19.50
2019-05-22T00:07:46.975Z,20.63
2019-05-22T00:10:20.223Z,19.42
2019-05-22T00:12:49.559Z,19.20
2019-05-22T00:15:18.754Z,18.85
2019-05-22T00:17:49.161Z,19.05
2019-05-22T00:20:19.790Z,21.13
2019-05-22T00:22:48.140Z,19.43
2019-05-22T00:25:23.932Z,19.33
2019-05-22T00:27:53.781Z,19.27
2019-05-22T00:30:23.781Z,19.10
2019-05-22T00:32:52.342Z,17.13
2019-05-22T00:35:21.753Z,17.50
2019-05-22T00:37:51.075Z,17.03
2019-05-22T00:40:20.497Z,17.77
2019-05-22T00:43:03.429Z,17.90
2019-05-22T00:45:22.377Z,18.60
2019-05-22T00:47:52.305Z,17.83
2019-05-22T00:50:30.698Z,16.67
2019-05-22T00:53:05.062Z,16.63
2019-05-22T00:55:41.389Z,16.43
2019-05-22T00:58:26.619Z,17.03
2019-05-22T01:01:01.378Z,18.13
2019-05-22T01:03:31.987Z,18.40
2019-05-22T01:06:01.403Z,20.32
2019-05-22T01:08:29.681Z,16.67
2019-05-22T01:11:00.990Z,19.05
2019-05-22T01:13:30.660Z,17.73
2019-05-22T01:15:59.403Z,20.40
2019-05-22T01:18:28.370Z,20.80
2019-05-22T01:20:59.118Z,20.77
2019-05-22T01:23:30.094Z,19.33
2019-05-22T01:26:00.489Z,19.35
2019-05-22T01:28:30.129Z,17.67
2019-05-22T01:31:02.889Z,18.20
2019-05-22T01:33:32.872Z,19.00
2019-05-22T01:36:02.795Z,19.90
2019-05-22T01:38:32.701Z,19.50
2019-05-22T01:41:05.810Z,18.27
2019-05-22T01:43:34.941Z,20.73
2019-05-22T01:46:03.892Z,20.23
2019-05-22T01:48:37.383Z,20.07
2019-05-22T01:51:07.108Z,17.87
2019-05-22T01:53:42.019Z,20.40
2019-05-22T01:56:12.220Z,18.17
2019-05-22T01:58:42.814Z,19.07
2019-05-22T02:01:16.940Z,19.42
2019-05-22T02:03:47.044Z,20.35
2019-05-22T02:06:17.853Z,19.35
2019-05-22T02:08:53.246Z,21.05
2019-05-22T02:11:23.263Z,17.35
2019-05-22T02:13:54.997Z,20.02
2019-05-22T02:16:24.041Z,18.50
2019-05-22T02:18:52.498Z,18.30
2019-05-22T02:21:21.640Z,21.50
2019-05-22T02:23:49.922Z,20.57
2019-05-22T02:26:19.766Z,19.23
2019-05-22T02:28:48.800Z,19.37
2019-05-22T02:31:18.714Z,20.30
2019-05-22T02:34:03.469Z,20.23
2019-05-22T02:36:32.785Z,19.27
2019-05-22T02:39:01.142Z,19.17
2019-05-22T02:41:42.113Z,19.13
2019-05-22T02:44:10.676Z,17.83
2019-05-22T02:46:39.247Z,19.40
2019-05-22T02:49:09.530Z,17.92
2019-05-22T02:51:37.933Z,19.00
2019-05-22T02:54:06.920Z,18.30
2019-05-22T02:56:36.067Z,19.87
2019-05-22T02:59:07.555Z,16.60
2019-05-22T03:01:37.037Z,17.70
2019-05-22T03:04:05.668Z,17.83
2019-05-22T03:06:35.657Z,20.13
2019-05-22T03:09:10.758Z,18.90
2019-05-22T03:11:42.535Z,18.45
2019-05-22T03:14:12.492Z,17.40
2019-05-22T03:16:56.263Z,19.20
2019-05-22T03:19:40.403Z,18.17
2019-05-22T03:22:27.571Z,20.23
2019-05-22T03:24:57.861Z,18.50
2019-05-22T03:27:43.988Z,17.23
2019-05-22T03:30:27.711Z,18.43
2019-05-22T03:32:56.979Z,18.83
2019-05-22T03:35:26.256Z,17.20
2019-05-22T03:37:56.221Z,20.27
2019-05-22T03:40:26.515Z,23.83
2019-05-22T03:42:55.247Z,19.10
2019-05-22T03:45:23.607Z,21.70
2019-05-22T03:47:52.948Z,22.30
2019-05-22T03:50:22.814Z,20.82
2019-05-22T03:52:51.814Z,19.25
2019-05-22T03:55:20.982Z,18.50
2019-05-22T03:57:49.722Z,18.25
2019-05-22T04:00:19.598Z,17.80
2019-05-22T04:02:53.723Z,18.60
2019-05-22T04:05:23.160Z,18.17
2019-05-22T04:07:53.677Z,16.20
2019-05-22T04:10:23.856Z,16.87
2019-05-22T04:12:53.676Z,15.37
2019-05-22T04:15:23.328Z,15.35
2019-05-22T04:17:52.368Z,17.20
2019-05-22T04:20:20.878Z,14.03
2019-05-22T04:22:51.069Z,14.70
2019-05-22T04:25:19.429Z,15.35
2019-05-22T04:27:47.734Z,15.20
2019-05-22T04:30:17.935Z,17.20
2019-05-22T04:32:46.489Z,15.17
2019-05-22T04:35:17.308Z,15.70
2019-05-22T04:37:47.283Z,15.30
2019-05-22T04:40:25.558Z,14.97
2019-05-22T04:42:54.580Z,14.97
2019-05-22T04:45:24.773Z,14.60
2019-05-22T04:47:58.494Z,14.70
2019-05-22T04:50:29.047Z,15.77
2019-05-22T04:52:57.794Z,14.53
2019-05-22T04:55:26.948Z,14.03
2019-05-22T04:57:55.386Z,14.40
2019-05-22T05:00:23.906Z,13.53
2019-05-22T05:02:53.096Z,15.57
2019-05-22T05:05:24.518Z,14.30
2019-05-22T05:07:53.778Z,15.43
2019-05-22T05:10:22.348Z,13.60
2019-05-22T05:12:50.846Z,16.80
2019-05-22T05:15:19.108Z,15.50
2019-05-22T05:17:47.439Z,15.20
2019-05-22T05:20:22.583Z,16.60
2019-05-22T05:22:47.473Z,15.27
2019-05-22T05:25:18.198Z,18.30
2019-05-22T05:27:47.539Z,16.62
2019-05-22T05:30:18.241Z,16.70
2019-05-22T05:32:47.576Z,18.03
2019-05-22T05:35:17.650Z,17.40
2019-05-22T05:37:46.515Z,17.70
2019-05-22T05:40:20.905Z,17.30
2019-05-22T05:42:49.955Z,20.13
2019-05-22T05:45:18.335Z,18.33
2019-05-22T05:47:46.683Z,18.20
2019-05-22T05:50:14.996Z,17.50
2019-05-22T05:52:43.979Z,18.40
2019-05-22T05:55:12.834Z,15.43
2019-05-22T05:57:53.633Z,19.62
2019-05-22T06:00:44.497Z,17.70
2019-05-22T06:03:29.880Z,19.00
2019-05-22T06:05:58.908Z,17.05
2019-05-22T06:08:27.199Z,17.17
2019-05-22T06:11:03.228Z,19.50
2019-05-22T06:13:31.995Z,17.87
2019-05-22T06:16:11.113Z,17.90
2019-05-22T06:18:39.854Z,17.10
2019-05-22T06:21:08.631Z,20.47
2019-05-22T06:23:42.209Z,22.58
2019-05-22T06:26:13.388Z,18.95
2019-05-22T06:28:42.341Z,17.70
2019-05-22T06:31:38.027Z,17.00
2019-05-22T06:34:06.875Z,17.53
2019-05-22T06:36:36.785Z,19.50
2019-05-22T06:39:09.051Z,16.70
2019-05-22T06:41:38.542Z,18.40
2019-05-22T06:44:35.302Z,16.43
2019-05-22T06:47:04.911Z,18.20
2019-05-22T06:49:35.140Z,16.77
2019-05-22T06:52:04.472Z,16.60
2019-05-22T06:54:33.019Z,17.50
2019-05-22T06:57:01.462Z,17.73
2019-05-22T06:59:29.833Z,16.30
2019-05-22T07:02:01.706Z,15.60
2019-05-22T07:04:29.774Z,14.95
2019-05-22T07:06:58.566Z,15.50
2019-05-22T07:09:28.086Z,14.95
2019-05-22T07:11:58.007Z,14.87
2019-05-22T07:14:27.123Z,15.50
2019-05-22T07:16:55.992Z,14.50
2019-05-22T07:19:24.765Z,15.00
2019-05-22T07:21:53.242Z,13.70
2019-05-22T07:24:22.688Z,14.57
2019-05-22T07:26:52.444Z,15.77
2019-05-22T07:29:20.985Z,14.20
2019-05-22T07:31:49.352Z,15.30
2019-05-22T07:34:18.581Z,13.00
2019-05-22T07:36:46.886Z,13.50
2019-05-22T07:39:15.230Z,15.37
2019-05-22T07:41:43.520Z,14.87
2019-05-22T07:44:11.817Z,14.10
2019-05-22T07:46:40.546Z,13.07
2019-05-22T07:49:09.010Z,14.53
2019-05-22T07:51:50.534Z,15.10
2019-05-22T07:54:07.379Z,13.03
2019-05-22T07:56:36.469Z,12.30
2019-05-22T07:59:05.303Z,14.50
2019-05-22T08:01:33.629Z,13.60
2019-05-22T08:04:02.889Z,13.30
2019-05-22T08:06:31.356Z,13.67
2019-05-22T08:08:59.925Z,14.10
2019-05-22T08:11:28.383Z,14.25
2019-05-22T08:13:57.732Z,16.20
2019-05-22T08:16:26.582Z,15.80
2019-05-22T08:18:54.897Z,16.45
2019-05-22T08:21:23.872Z,18.07
2019-05-22T08:23:53.878Z,16.37
2019-05-22T08:26:23.805Z,16.05
2019-05-22T08:28:52.166Z,16.17
2019-05-22T08:31:22.093Z,15.57
2019-05-22T08:33:50.442Z,15.72
2019-05-22T08:36:18.733Z,17.57
2019-05-22T08:38:47.031Z,15.47
2019-05-22T08:41:16.649Z,15.00
2019-05-22T08:44:15.219Z,17.45
2019-05-22T08:46:17.140Z,15.40
2019-05-22T08:48:48.708Z,17.27
2019-05-22T08:51:15.848Z,15.37
2019-05-22T08:53:48.167Z,16.45
2019-05-22T08:56:14.615Z,17.03
2019-05-22T08:58:44.955Z,16.65
2019-05-22T09:01:14.263Z,13.90
2019-05-22T09:03:42.646Z,13.83
2019-05-22T09:06:11.323Z,15.90
2019-05-22T09:08:40.267Z,14.10
2019-05-22T09:11:09.111Z,14.70
2019-05-22T09:13:38.358Z,14.70
2019-05-22T09:16:08.948Z,14.53
2019-05-22T09:18:37.320Z,14.30
2019-05-22T09:21:05.982Z,14.57
2019-05-22T09:23:35.985Z,14.93
2019-05-22T09:26:05.676Z,14.13
2019-05-22T09:28:34.003Z,13.13
2019-05-22T09:31:02.303Z,13.10
2019-05-22T09:33:31.247Z,12.83
2019-05-22T09:35:59.604Z,13.13
2019-05-22T09:38:28.166Z,13.23
2019-05-22T09:40:56.529Z,12.77
2019-05-22T09:43:24.896Z,13.73
2019-05-22T09:45:53.822Z,13.67
2019-05-22T09:48:22.267Z,13.15
2019-05-22T09:50:50.534Z,12.80
2019-05-22T09:53:19.649Z,12.30
2019-05-22T09:55:48.202Z,11.40
2019-05-22T09:58:16.671Z,11.60
2019-05-22T10:00:45.130Z,12.90
2019-05-22T10:03:13.538Z,12.33
2019-05-22T10:05:42.345Z,12.77
2019-05-22T10:08:10.740Z,12.50
2019-05-22T10:10:39.585Z,12.73
2019-05-22T10:13:08.054Z,13.47
2019-05-22T10:15:36.352Z,11.10
2019-05-22T10:18:06.034Z,10.87
2019-05-22T10:20:34.653Z,11.20
2019-05-22T10:23:14.798Z,11.00
2019-05-22T10:25:35.040Z,10.30
2019-05-22T10:28:04.468Z,8.83
2019-05-22T10:30:32.886Z,8.73
2019-05-22T10:33:01.144Z,9.10
2019-05-22T10:35:31.090Z,8.85
2019-05-22T10:37:59.538Z,8.48
2019-05-22T10:40:28.173Z,7.60
2019-05-22T10:42:57.236Z,9.10
2019-05-22T10:45:27.154Z,8.20
2019-05-22T10:47:55.435Z,8.00
2019-05-22T10:50:24.990Z,8.27
2019-05-22T10:52:54.910Z,8.38
2019-05-22T10:55:24.123Z,7.83
2019-05-22T10:57:52.569Z,8.55
2019-05-22T11:00:21.901Z,8.27
2019-05-22T11:02:50.216Z,8.67
2019-05-22T11:05:20.105Z,8.93
2019-05-22T11:07:49.025Z,7.30
2019-05-22T11:10:19.991Z,8.03
2019-05-22T11:12:48.511Z,7.22
2019-05-22T11:15:17.428Z,7.87
2019-05-22T11:17:45.705Z,6.37
2019-05-22T11:20:14.378Z,7.42
2019-05-22T11:22:42.643Z,6.72
2019-05-22T11:25:12.662Z,5.53
2019-05-22T11:27:41.297Z,6.80
2019-05-22T11:30:14.096Z,6.55
2019-05-22T11:32:42.620Z,6.10
2019-05-22T11:35:11.411Z,6.20
2019-05-22T11:37:39.963Z,6.13
2019-05-22T11:40:08.566Z,6.00
2019-05-22T11:42:38.126Z,5.67
2019-05-22T11:45:08.489Z,6.43
2019-05-22T11:47:36.805Z,6.27
2019-05-22T11:50:09.680Z,6.10
2019-05-22T11:52:38.040Z,4.97
2019-05-22T11:55:06.640Z,5.17
2019-05-22T11:57:35.384Z,4.73
2019-05-22T12:00:09.351Z,5.23
2019-05-22T12:02:39.468Z,5.60
2019-05-22T12:05:10.403Z,6.10
2019-05-22T12:07:43.459Z,5.97
2019-05-22T12:10:12.550Z,6.63
2019-05-22T12:12:41.392Z,5.77
2019-05-22T12:15:10.402Z,6.60
2019-05-22T12:17:39.239Z,5.07
2019-05-22T12:20:09.846Z,6.33
2019-05-22T12:22:38.495Z,6.70
2019-05-22T12:25:09.381Z,6.50
2019-05-22T12:27:37.681Z,6.70
2019-05-22T12:30:08.979Z,6.30
2019-05-22T12:32:38.042Z,5.80
2019-05-22T12:35:07.207Z,5.60
2019-05-22T12:37:35.680Z,5.97
2019-05-22T12:40:07.919Z,6.53
2019-05-22T12:42:36.377Z,5.62
2019-05-22T12:45:09.604Z,5.87
2019-05-22T12:47:38.301Z,5.23
2019-05-22T12:50:08.114Z,4.60
2019-05-22T12:52:36.591Z,5.12
2019-05-22T12:55:06.198Z,5.00
2019-05-22T12:57:34.578Z,4.60
2019-05-22T13:00:04.722Z,5.40
2019-05-22T13:02:34.773Z,5.05
2019-05-22T13:05:03.080Z,5.70
2019-05-22T13:07:31.628Z,5.50
2019-05-22T13:09:59.917Z,5.23
2019-05-22T13:12:28.466Z,5.80
2019-05-22T13:15:08.836Z,5.35
2019-05-22T13:17:27.808Z,4.47
2019-05-22T13:19:56.797Z,4.77
2019-05-22T13:22:26.401Z,5.22
2019-05-22T13:24:55.207Z,5.70
2019-05-22T13:27:23.579Z,3.73
2019-05-22T13:29:52.449Z,4.50
2019-05-22T13:32:21.567Z,5.03
2019-05-22T13:34:51.089Z,4.23
2019-05-22T13:37:19.430Z,4.83
2019-05-22T13:39:47.719Z,4.53
2019-05-22T13:42:15.993Z,4.47
2019-05-22T13:44:44.372Z,5.10
2019-05-22T13:47:13.125Z,5.83
2019-05-22T13:49:42.615Z,5.07
2019-05-22T13:52:11.845Z,5.03
2019-05-22T13:54:40.301Z,5.47
2019-05-22T13:57:09.135Z,4.63
2019-05-22T13:59:37.805Z,5.00
2019-05-22T14:02:06.167Z,4.60
2019-05-22T14:04:34.644Z,5.03
2019-05-22T14:07:03.295Z,5.10
2019-05-22T14:09:32.426Z,4.53
2019-05-22T14:12:00.794Z,4.60
2019-05-22T14:14:29.234Z,4.60
2019-05-22T14:16:57.509Z,5.00
2019-05-22T14:19:25.809Z,5.08
2019-05-22T14:21:54.192Z,4.95
2019-05-22T14:24:22.499Z,4.08
2019-05-22T14:26:50.912Z,5.03
2019-05-22T14:29:19.264Z,5.03
2019-05-22T14:31:47.551Z,4.30
2019-05-22T14:34:16.018Z,4.37
2019-05-22T14:36:44.762Z,4.10
2019-05-22T14:39:13.976Z,3.83
2019-05-22T14:41:42.359Z,4.10
2019-05-22T14:44:10.881Z,3.67
2019-05-22T14:46:39.240Z,3.77
2019-05-22T14:49:07.534Z,4.13
2019-05-22T14:51:35.808Z,3.27
2019-05-22T14:54:04.977Z,3.93
2019-05-22T14:56:33.605Z,3.90
2019-05-22T14:59:02.127Z,3.60
2019-05-22T15:01:30.474Z,3.67
2019-05-22T15:03:58.752Z,3.77
2019-05-22T15:06:27.408Z,3.90
2019-05-22T15:08:55.669Z,3.70
2019-05-22T15:11:23.937Z,3.47
2019-05-22T15:13:52.499Z,5.45
2019-05-22T15:16:21.357Z,3.90
2019-05-22T15:18:49.638Z,3.37
2019-05-22T15:21:18.311Z,3.30
2019-05-22T15:23:47.695Z,4.62
2019-05-22T15:26:16.108Z,3.90
2019-05-22T15:28:44.492Z,3.80
2019-05-22T15:31:12.808Z,3.37
2019-05-22T15:33:42.272Z,4.35
2019-05-22T15:36:12.662Z,5.80
2019-05-22T15:38:42.239Z,3.90
2019-05-22T15:41:10.834Z,4.67
2019-05-22T15:43:40.944Z,4.50
2019-05-22T15:46:10.165Z,3.60
2019-05-22T15:48:39.638Z,3.70
2019-05-22T15:51:09.927Z,3.83
2019-05-22T15:53:39.553Z,3.02
2019-05-22T15:56:09.316Z,3.87
2019-05-22T15:58:41.193Z,3.30
2019-05-22T16:01:10.926Z,3.33
2019-05-22T16:03:41.036Z,3.27
2019-05-22T16:06:10.505Z,3.50
2019-05-22T16:08:38.950Z,3.95
2019-05-22T16:11:09.161Z,3.87
2019-05-22T16:13:39.128Z,3.40
2019-05-22T16:16:09.585Z,3.30
2019-05-22T16:18:38.249Z,3.83
2019-05-22T16:21:09.018Z,4.10
2019-05-22T16:23:38.306Z,3.63
2019-05-22T16:26:07.986Z,3.73
2019-05-22T16:28:38.570Z,4.17
2019-05-22T16:31:10.336Z,4.00
2019-05-22T16:33:41.539Z,4.83
2019-05-22T16:36:10.203Z,4.60
2019-05-22T16:38:39.034Z,4.00
2019-05-22T16:41:07.693Z,4.00
2019-05-22T16:43:48.868Z,3.60
2019-05-22T16:46:07.788Z,4.67
2019-05-22T16:48:37.065Z,4.30
2019-05-22T16:51:06.713Z,4.10
2019-05-22T16:53:35.331Z,3.77
2019-05-22T16:56:03.701Z,3.97
2019-05-22T16:58:32.427Z,3.90
2019-05-22T17:01:00.712Z,4.35
2019-05-22T17:03:29.195Z,4.00
2019-05-22T17:05:57.758Z,4.30
2019-05-22T17:08:28.132Z,3.60
2019-05-22T17:10:59.422Z,3.55
2019-05-22T17:13:30.069Z,3.42
2019-05-22T17:15:58.683Z,4.33
2019-05-22T17:18:45.569Z,4.50
2019-05-22T17:20:58.889Z,3.93
2019-05-22T17:23:27.849Z,3.80
2019-05-22T17:25:58.023Z,3.87
2019-05-22T17:28:27.084Z,3.83
2019-05-22T17:30:56.253Z,3.87
2019-05-22T17:33:24.552Z,4.60
2019-05-22T17:35:53.272Z,4.00
2019-05-22T17:38:23.014Z,3.70
2019-05-22T17:40:52.043Z,3.67
2019-05-22T17:43:21.264Z,3.63
2019-05-22T17:45:49.785Z,4.00
2019-05-22T17:48:18.932Z,3.73
2019-05-22T17:50:47.366Z,3.43
2019-05-22T17:53:17.719Z,3.87
2019-05-22T17:55:47.005Z,3.87
2019-05-22T17:58:15.548Z,3.40
2019-05-22T18:00:51.361Z,3.50
2019-05-22T18:03:19.926Z,3.35
2019-05-22T18:05:48.682Z,3.97
2019-05-22T18:08:17.830Z,3.55
2019-05-22T18:10:48.561Z,3.67
2019-05-22T18:13:17.092Z,3.10
2019-05-22T18:15:46.430Z,3.63
2019-05-22T18:18:15.049Z,3.60
2019-05-22T18:20:44.322Z,4.03
2019-05-22T18:23:12.665Z,5.10
2019-05-22T18:25:41.290Z,3.40
2019-05-22T18:28:10.639Z,3.00
2019-05-22T18:30:40.619Z,3.45
2019-05-22T18:33:09.763Z,3.90
2019-05-22T18:35:38.333Z,3.03
2019-05-22T18:38:06.743Z,4.35
2019-05-22T18:40:35.204Z,3.40
2019-05-22T18:43:03.475Z,3.75
2019-05-22T18:45:35.012Z,3.20
2019-05-22T18:48:04.354Z,3.42
2019-05-22T18:50:32.815Z,3.10
2019-05-22T18:53:01.133Z,3.20
2019-05-22T18:55:30.521Z,2.80
2019-05-22T18:57:58.967Z,3.10
2019-05-22T19:00:28.894Z,3.10
2019-05-22T19:02:57.539Z,3.10
2019-05-22T19:05:28.022Z,3.10
2019-05-22T19:07:56.312Z,4.00
2019-05-22T19:10:24.667Z,3.20
2019-05-22T19:12:53.018Z,3.50
2019-05-22T19:15:22.671Z,3.00
2019-05-22T19:17:51.094Z,3.60
2019-05-22T19:20:19.365Z,4.00
2019-05-22T19:22:59.156Z,3.50
2019-05-22T19:25:18.241Z,3.63
2019-05-22T19:27:46.601Z,3.70
2019-05-22T19:30:19.053Z,3.53
2019-05-22T19:32:47.957Z,4.10
2019-05-22T19:35:16.235Z,3.50
2019-05-22T19:37:45.879Z,3.60
2019-05-22T19:40:16.996Z,3.27
2019-05-22T19:42:45.302Z,3.33
2019-05-22T19:45:14.293Z,4.00
2019-05-22T19:47:49.817Z,3.25
2019-05-22T19:50:23.080Z,3.33
2019-05-22T19:52:51.855Z,4.45
2019-05-22T19:55:21.487Z,4.23
2019-05-22T19:57:51.184Z,3.47
2019-05-22T20:00:19.589Z,3.50
2019-05-22T20:02:50.690Z,3.70
2019-05-22T20:05:18.594Z,4.22
2019-05-22T20:07:47.321Z,3.98
2019-05-22T20:10:15.591Z,3.47
2019-05-22T20:12:43.901Z,4.12
2019-05-22T20:15:12.325Z,4.00
2019-05-22T20:17:40.927Z,3.63
2019-05-22T20:20:11.227Z,4.37
2019-05-22T20:22:40.035Z,4.25
2019-05-22T20:25:08.756Z,4.57
2019-05-22T20:27:37.114Z,4.93
2019-05-22T20:30:07.132Z,3.60
2019-05-22T20:32:36.053Z,3.97
2019-05-22T20:35:05.850Z,4.70
2019-05-22T20:37:34.611Z,4.70
2019-05-22T20:40:03.234Z,4.43
2019-05-22T20:42:32.959Z,4.20
2019-05-22T20:45:01.884Z,4.20
2019-05-22T20:47:31.845Z,4.80
2019-05-22T20:50:01.514Z,5.80
2019-05-22T20:52:30.663Z,4.60
2019-05-22T20:54:59.429Z,5.10
2019-05-22T20:57:28.209Z,4.63
2019-05-22T20:59:56.636Z,5.15
2019-05-22T21:02:26.616Z,4.53
2019-05-22T21:04:57.507Z,4.33
2019-05-22T21:07:34.770Z,4.60
2019-05-22T21:10:03.882Z,4.42
2019-05-22T21:12:35.747Z,5.35
2019-05-22T21:15:03.482Z,4.70
2019-05-22T21:17:31.749Z,4.90
2019-05-22T21:20:00.683Z,5.03
2019-05-22T21:22:32.015Z,5.65
2019-05-22T21:25:00.246Z,5.60
2019-05-22T21:27:28.997Z,6.22
2019-05-22T21:29:57.563Z,5.72
2019-05-22T21:32:25.920Z,5.78
2019-05-22T21:34:55.176Z,5.80
2019-05-22T21:37:24.402Z,6.30
2019-05-22T21:39:52.850Z,5.60
2019-05-22T21:42:21.486Z,6.07
2019-05-22T21:44:50.036Z,6.00
2019-05-22T21:47:18.600Z,6.33
2019-05-22T21:49:47.028Z,6.45
2019-05-22T21:52:15.669Z,6.63
2019-05-22T21:54:44.390Z,6.37
2019-05-22T21:57:13.449Z,6.70
2019-05-22T21:59:41.795Z,6.27
2019-05-22T22:02:21.031Z,7.50
2019-05-22T22:04:49.535Z,6.17
2019-05-22T22:07:18.411Z,6.60
2019-05-22T22:09:47.073Z,7.47
2019-05-22T22:12:19.480Z,7.90
2019-05-22T22:14:49.619Z,7.03
2019-05-22T22:17:19.568Z,6.80
2019-05-22T22:19:49.170Z,6.57
2019-05-22T22:22:23.736Z,7.78
2019-05-22T22:24:52.288Z,7.07
2019-05-22T22:27:20.646Z,6.90
2019-05-22T22:29:49.561Z,7.27
2019-05-22T22:32:19.574Z,8.00
2019-05-22T22:34:48.587Z,7.27
2019-05-22T22:37:17.427Z,7.40
2019-05-22T22:39:47.494Z,7.10
2019-05-22T22:42:17.082Z,7.90
2019-05-22T22:44:48.050Z,7.50
2019-05-22T22:47:18.458Z,6.92
2019-05-22T22:49:48.064Z,8.40
2019-05-22T22:52:17.328Z,9.33
2019-05-22T22:54:46.091Z,9.33
2019-05-22T22:57:14.740Z,8.10
2019-05-22T22:59:43.254Z,8.57
2019-05-22T23:02:14.252Z,8.40
2019-05-22T23:04:43.407Z,7.80
2019-05-22T23:07:11.768Z,7.23
2019-05-22T23:09:42.503Z,7.22
2019-05-22T23:12:12.458Z,8.73
2019-05-22T23:14:45.381Z,8.30
2019-05-22T23:17:13.735Z,8.90
2019-05-22T23:19:42.680Z,9.00
2019-05-22T23:22:19.482Z,9.50
2019-05-22T23:24:49.431Z,9.53
2019-05-22T23:27:19.252Z,9.00
2019-05-22T23:29:48.195Z,8.10
2019-05-22T23:32:18.377Z,9.50
2019-05-22T23:34:47.265Z,8.20
2019-05-22T23:37:17.462Z,8.73
2019-05-22T23:39:46.178Z,9.10
2019-05-22T23:42:17.442Z,8.88
2019-05-22T23:44:46.194Z,8.30
2019-05-22T23:47:15.461Z,8.70
2019-05-22T23:49:43.828Z,9.10
2019-05-22T23:52:13.832Z,8.50
2019-05-22T23:54:43.770Z,9.53
2019-05-22T23:57:13.843Z,9.83
2019-05-22T23:59:42.432Z,8.55
